createdAt,value
2022-10-09T00:01:26.168Z,95859.34
2022-10-09T00:03:54.853Z,95865.09
2022-10-09T00:06:24.827Z,95858.94
2022-10-09T00:08:52.071Z,95863.06
2022-10-09T00:11:24.669Z,95860.41
2022-10-09T00:13:52.580Z,95857.72
2022-10-09T00:16:20.525Z,95855.06
2022-10-09T00:18:47.531Z,95855.09
2022-10-09T00:21:25.271Z,95850.88
2022-10-09T00:23:55.972Z,95852.06
2022-10-09T00:26:22.995Z,95844.38
2022-10-09T00:28:50.453Z,95845.41
2022-10-09T00:31:17.798Z,95843.88
2022-10-09T00:33:44.707Z,95846.59
2022-10-09T00:36:17.345Z,95836.88
2022-10-09T00:38:44.184Z,95833.84
2022-10-09T00:41:16.106Z,95834.53
2022-10-09T00:43:47.274Z,95844.22
2022-10-09T00:46:39.552Z,95841.06
2022-10-09T00:49:15.123Z,95846.91
2022-10-09T00:51:44.890Z,95838.88
2022-10-09T00:54:14.896Z,95842.47
2022-10-09T00:56:42.213Z,95844.22
2022-10-09T00:59:09.347Z,95838.16
2022-10-09T01:01:35.948Z,95837.47
2022-10-09T01:04:02.630Z,95833.94
2022-10-09T01:07:06.836Z,95833.81
2022-10-09T01:10:02.837Z,95829.38
2022-10-09T01:13:00.776Z,95822.31
2022-10-09T01:15:30.681Z,95825.25
2022-10-09T01:18:17.585Z,95819.59
2022-10-09T01:20:44.078Z,95811.56
2022-10-09T01:23:29.378Z,95811.09
2022-10-09T01:26:15.386Z,95809.94
2022-10-09T01:29:06.938Z,95816.00
2022-10-09T01:31:37.857Z,95804.69
2022-10-09T01:34:06.837Z,95802.56
2022-10-09T01:36:35.353Z,95799.53
2022-10-09T01:39:04.538Z,95796.59
2022-10-09T01:41:31.123Z,95791.00
2022-10-09T01:43:57.668Z,95792.75
2022-10-09T01:46:31.928Z,95794.47
2022-10-09T01:49:07.229Z,95792.97
2022-10-09T01:51:42.565Z,95792.03
2022-10-09T01:54:11.920Z,95786.06
2022-10-09T01:56:39.713Z,95783.63
2022-10-09T01:59:15.807Z,95780.22
2022-10-09T02:01:43.767Z,95779.44
2022-10-09T02:04:13.055Z,95776.16
2022-10-09T02:06:41.441Z,95769.59
2022-10-09T02:09:14.126Z,95768.91
2022-10-09T02:11:43.799Z,95762.03
2022-10-09T02:14:10.406Z,95766.22
2022-10-09T02:16:44.525Z,95757.69
2022-10-09T02:19:13.590Z,95757.69
2022-10-09T02:21:51.335Z,95759.09
2022-10-09T02:24:22.706Z,95746.59
2022-10-09T02:26:51.079Z,95746.38
2022-10-09T02:29:17.945Z,95745.66
2022-10-09T02:31:45.007Z,95744.84
2022-10-09T02:34:18.073Z,95742.38
2022-10-09T02:36:45.632Z,95737.50
2022-10-09T02:39:12.686Z,95744.03
2022-10-09T02:41:39.275Z,95739.22
2022-10-09T02:44:06.342Z,95738.31
2022-10-09T02:46:33.568Z,95738.06
2022-10-09T02:49:00.261Z,95735.13
2022-10-09T02:51:27.106Z,95733.63
2022-10-09T02:53:54.486Z,95737.94
2022-10-09T02:56:24.590Z,95733.84
2022-10-09T02:58:51.226Z,95725.94
2022-10-09T03:01:19.098Z,95730.25
2022-10-09T03:03:46.570Z,95731.84
2022-10-09T03:06:19.461Z,95730.94
2022-10-09T03:08:48.177Z,95721.50
2022-10-09T03:11:16.953Z,95723.34
2022-10-09T03:13:43.757Z,95726.06
2022-10-09T03:16:14.444Z,95718.44
2022-10-09T03:18:41.583Z,95710.97
2022-10-09T03:21:10.812Z,95716.31
2022-10-09T03:23:37.419Z,95711.88
2022-10-09T03:26:07.857Z,95706.53
2022-10-09T03:28:42.968Z,95713.53
2022-10-09T03:31:22.336Z,95705.47
2022-10-09T03:33:54.162Z,95707.22
2022-10-09T03:36:20.840Z,95712.56
2022-10-09T03:38:47.456Z,95715.25
2022-10-09T03:41:14.104Z,95721.44
2022-10-09T03:43:40.659Z,95717.94
2022-10-09T03:46:08.454Z,95722.59
2022-10-09T03:48:35.915Z,95722.72
2022-10-09T03:51:02.713Z,95722.59
2022-10-09T03:53:29.438Z,95722.72
2022-10-09T03:55:56.039Z,95719.94
2022-10-09T03:58:22.773Z,95716.97
2022-10-09T04:00:52.709Z,95720.69
2022-10-09T04:03:20.119Z,95721.97
2022-10-09T04:05:47.081Z,95729.66
2022-10-09T04:08:14.282Z,95727.78
2022-10-09T04:10:40.974Z,95722.06
2022-10-09T04:13:07.615Z,95718.78
2022-10-09T04:15:35.264Z,95720.75
2022-10-09T04:18:01.805Z,95718.06
2022-10-09T04:20:28.399Z,95715.00
2022-10-09T04:22:55.017Z,95724.94
2022-10-09T04:25:21.869Z,95723.75
2022-10-09T04:27:48.450Z,95730.63
2022-10-09T04:30:15.126Z,95719.88
2022-10-09T04:32:41.767Z,95713.22
2022-10-09T04:35:08.755Z,95708.81
2022-10-09T04:37:36.682Z,95707.50
2022-10-09T04:40:03.936Z,95708.41
2022-10-09T04:42:30.483Z,95709.59
2022-10-09T04:44:57.034Z,95702.09
2022-10-09T04:47:23.687Z,95701.19
2022-10-09T04:49:50.208Z,95699.75
2022-10-09T04:52:16.773Z,95699.97
2022-10-09T04:54:43.331Z,95694.75
2022-10-09T04:57:09.890Z,95695.66
2022-10-09T04:59:36.446Z,95689.94
2022-10-09T05:02:03.624Z,95688.28
2022-10-09T05:04:30.325Z,95686.78
2022-10-09T05:06:56.859Z,95683.38
2022-10-09T05:09:23.400Z,95682.56
2022-10-09T05:11:49.972Z,95681.97
2022-10-09T05:14:16.658Z,95673.78
2022-10-09T05:17:08.316Z,95674.81
2022-10-09T05:19:29.820Z,95676.94
2022-10-09T05:21:56.405Z,95676.34
2022-10-09T05:24:22.957Z,95677.06
2022-10-09T05:26:49.500Z,95672.09
2022-10-09T05:29:16.041Z,95673.13
2022-10-09T05:31:48.398Z,95668.72
2022-10-09T05:34:16.254Z,95669.31
2022-10-09T05:36:42.854Z,95674.53
2022-10-09T05:39:09.617Z,95670.84
2022-10-09T05:41:36.232Z,95676.88
2022-10-09T05:44:03.527Z,95676.88
2022-10-09T05:46:30.671Z,95669.19
2022-10-09T05:48:58.842Z,95671.13
2022-10-09T05:51:30.816Z,95670.66
2022-10-09T05:53:58.588Z,95671.59
2022-10-09T05:56:44.457Z,95671.34
2022-10-09T05:59:19.352Z,95664.59
2022-10-09T06:01:49.170Z,95668.69
2022-10-09T06:04:21.897Z,95667.88
2022-10-09T06:06:49.473Z,95666.13
2022-10-09T06:09:18.791Z,95670.09
2022-10-09T06:11:45.806Z,95675.00
2022-10-09T06:14:13.338Z,95678.88
2022-10-09T06:16:42.760Z,95684.00
2022-10-09T06:19:12.209Z,95677.94
2022-10-09T06:21:38.927Z,95681.44
2022-10-09T06:24:06.897Z,95680.56
2022-10-09T06:26:34.146Z,95679.38
2022-10-09T06:29:02.173Z,95680.69
2022-10-09T06:31:31.836Z,95687.91
2022-10-09T06:34:00.876Z,95686.66
2022-10-09T06:36:29.882Z,95684.56
2022-10-09T06:38:58.595Z,95690.50
2022-10-09T06:41:27.306Z,95691.19
2022-10-09T06:43:55.063Z,95685.75
2022-10-09T06:46:24.245Z,95694.16
2022-10-09T06:48:51.194Z,95700.31
2022-10-09T06:51:21.156Z,95697.31
2022-10-09T06:53:53.791Z,95698.72
2022-10-09T06:56:22.872Z,95703.28
2022-10-09T06:58:49.836Z,95707.13
2022-10-09T07:01:23.819Z,95709.81
2022-10-09T07:04:01.966Z,95702.94
2022-10-09T07:06:31.364Z,95699.69
2022-10-09T07:09:03.908Z,95701.28
2022-10-09T07:11:36.671Z,95696.97
2022-10-09T07:14:06.077Z,95689.84
2022-10-09T07:16:38.763Z,95693.50
2022-10-09T07:19:08.256Z,95701.19
2022-10-09T07:21:35.852Z,95699.00
2022-10-09T07:24:04.364Z,95698.03
2022-10-09T07:26:33.088Z,95696.88
2022-10-09T07:29:00.034Z,95697.91
2022-10-09T07:31:26.791Z,95701.53
2022-10-09T07:33:56.510Z,95704.66
2022-10-09T07:36:23.288Z,95697.31
2022-10-09T07:38:55.389Z,95702.31
2022-10-09T07:41:23.970Z,95694.53
2022-10-09T07:43:50.630Z,95698.94
2022-10-09T07:46:19.375Z,95694.72
2022-10-09T07:48:46.261Z,95688.25
2022-10-09T07:51:22.437Z,95686.16
2022-10-09T07:53:49.096Z,95687.16
2022-10-09T07:56:28.085Z,95681.06
2022-10-09T07:59:00.541Z,95691.53
2022-10-09T08:01:28.562Z,95685.47
2022-10-09T08:03:55.487Z,95687.34
2022-10-09T08:06:22.365Z,95685.72
2022-10-09T08:08:51.176Z,95686.56
2022-10-09T08:11:18.681Z,95680.78
2022-10-09T08:13:46.511Z,95682.09
2022-10-09T08:16:13.844Z,95677.22
2022-10-09T08:18:40.697Z,95683.78
2022-10-09T08:21:11.109Z,95683.00
2022-10-09T08:23:37.930Z,95682.81
2022-10-09T08:26:05.351Z,95680.28
2022-10-09T08:28:31.997Z,95676.69
2022-10-09T08:30:58.719Z,95682.22
2022-10-09T08:33:25.995Z,95668.03
2022-10-09T08:35:54.345Z,95670.50
2022-10-09T08:38:45.516Z,95666.84
2022-10-09T08:41:10.612Z,95669.59
2022-10-09T08:43:45.280Z,95668.81
2022-10-09T08:46:26.165Z,95679.69
2022-10-09T08:48:53.850Z,95662.34
2022-10-09T08:51:28.100Z,95657.03
2022-10-09T08:54:01.552Z,95662.88
2022-10-09T08:56:30.053Z,95664.91
2022-10-09T08:58:56.892Z,95656.34
2022-10-09T09:01:58.466Z,95650.44
2022-10-09T09:04:32.159Z,95655.06
2022-10-09T09:07:17.170Z,95647.56
2022-10-09T09:10:20.902Z,95646.41
2022-10-09T09:12:57.185Z,95650.06
2022-10-09T09:15:44.837Z,95651.03
2022-10-09T09:18:49.176Z,95650.66
2022-10-09T09:21:34.094Z,95646.97
2022-10-09T09:24:07.184Z,95650.41
2022-10-09T09:26:33.751Z,95637.22
2022-10-09T09:29:04.922Z,95642.22
2022-10-09T09:31:37.177Z,95638.91
2022-10-09T09:34:31.447Z,95631.38
2022-10-09T09:36:59.056Z,95635.88
2022-10-09T09:40:24.343Z,95631.66
2022-10-09T09:42:20.759Z,95632.13
2022-10-09T09:44:56.271Z,95627.31
2022-10-09T09:47:30.486Z,95625.06
2022-10-09T09:50:00.954Z,95625.38
2022-10-09T09:52:31.857Z,95623.47
2022-10-09T09:54:59.050Z,95624.22
2022-10-09T09:57:32.999Z,95613.91
2022-10-09T10:00:15.683Z,95604.44
2022-10-09T10:02:42.312Z,95604.94
2022-10-09T10:05:16.754Z,95603.59
2022-10-09T10:07:43.426Z,95603.22
2022-10-09T10:10:10.021Z,95604.19
2022-10-09T10:12:53.509Z,95596.84
2022-10-09T10:15:29.272Z,95586.81
2022-10-09T10:18:06.002Z,95589.97
2022-10-09T10:20:43.463Z,95587.31
2022-10-09T10:23:43.597Z,95582.69
2022-10-09T10:26:17.668Z,95583.63
2022-10-09T10:28:53.581Z,95576.13
2022-10-09T10:31:46.354Z,95577.84
2022-10-09T10:34:26.784Z,95573.88
2022-10-09T10:37:15.520Z,95573.00
2022-10-09T10:39:49.094Z,95569.25
2022-10-09T10:42:22.368Z,95577.09
2022-10-09T10:44:56.881Z,95573.22
2022-10-09T10:47:26.342Z,95576.31
2022-10-09T10:49:53.223Z,95574.78
2022-10-09T10:53:14.015Z,95573.03
2022-10-09T10:55:46.279Z,95566.22
2022-10-09T10:58:13.543Z,95567.69
2022-10-09T11:00:48.252Z,95572.06
2022-10-09T11:03:14.838Z,95565.53
2022-10-09T11:06:01.137Z,95566.59
2022-10-09T11:08:30.542Z,95566.47
2022-10-09T11:11:12.441Z,95566.47
2022-10-09T11:13:48.052Z,95568.94
2022-10-09T11:16:17.655Z,95566.50
2022-10-09T11:19:02.547Z,95572.19
2022-10-09T11:21:53.530Z,95557.97
2022-10-09T11:24:24.091Z,95551.63
2022-10-09T11:27:19.948Z,95556.13
2022-10-09T11:30:11.094Z,95558.97
2022-10-09T11:32:57.533Z,95545.19
2022-10-09T11:35:29.208Z,95533.19
2022-10-09T11:38:01.129Z,95542.50
2022-10-09T11:40:33.504Z,95547.50
2022-10-09T11:43:23.001Z,95538.56
2022-10-09T11:45:55.714Z,95537.19
2022-10-09T11:48:31.650Z,95526.22
2022-10-09T11:51:04.268Z,95530.59
2022-10-09T11:53:34.470Z,95523.78
2022-10-09T11:56:02.926Z,95518.59
2022-10-09T11:58:29.726Z,95517.66
2022-10-09T12:01:09.814Z,95515.06
2022-10-09T12:03:39.476Z,95506.00
2022-10-09T12:06:12.938Z,95503.75
2022-10-09T12:09:01.781Z,95506.94
2022-10-09T12:11:29.602Z,95507.63
2022-10-09T12:13:58.844Z,95505.78
2022-10-09T12:16:37.259Z,95495.84
2022-10-09T12:19:24.348Z,95496.47
2022-10-09T12:22:11.695Z,95491.13
2022-10-09T12:24:44.887Z,95494.38
2022-10-09T12:27:27.060Z,95490.59
2022-10-09T12:29:58.817Z,95485.84
2022-10-09T12:32:36.649Z,95489.94
2022-10-09T12:35:25.779Z,95481.53
2022-10-09T12:37:52.694Z,95478.91
2022-10-09T12:40:25.496Z,95470.47
2022-10-09T12:42:53.903Z,95471.41
2022-10-09T12:45:24.918Z,95467.78
2022-10-09T12:47:53.510Z,95468.47
2022-10-09T12:50:32.863Z,95470.50
2022-10-09T12:53:01.039Z,95471.38
2022-10-09T12:55:33.165Z,95470.47
2022-10-09T12:58:04.907Z,95464.78
2022-10-09T13:00:35.410Z,95461.69
2022-10-09T13:03:02.554Z,95464.72
2022-10-09T13:05:40.330Z,95458.25
2022-10-09T13:08:22.219Z,95455.00
2022-10-09T13:10:48.844Z,95454.13
2022-10-09T13:13:26.433Z,95446.97
2022-10-09T13:16:09.316Z,95447.13
2022-10-09T13:18:37.448Z,95442.44
2022-10-09T13:21:29.042Z,95445.41
2022-10-09T13:24:16.454Z,95444.13
2022-10-09T13:26:43.817Z,95438.31
2022-10-09T13:29:13.274Z,95440.56
2022-10-09T13:31:43.538Z,95442.69
2022-10-09T13:34:12.570Z,95436.22
2022-10-09T13:36:39.128Z,95440.31
2022-10-09T13:39:06.530Z,95431.53
2022-10-09T13:41:33.743Z,95437.53
2022-10-09T13:44:00.308Z,95439.63
2022-10-09T13:46:26.953Z,95439.13
2022-10-09T13:48:53.539Z,95437.31
2022-10-09T13:51:20.094Z,95432.13
2022-10-09T13:53:46.693Z,95434.72
2022-10-09T13:56:13.204Z,95429.03
2022-10-09T13:58:39.768Z,95425.47
2022-10-09T14:01:08.727Z,95425.63
2022-10-09T14:03:35.779Z,95418.03
2022-10-09T14:06:05.398Z,95421.91
2022-10-09T14:08:32.226Z,95412.16
2022-10-09T14:11:02.826Z,95410.06
2022-10-09T14:13:30.172Z,95407.25
2022-10-09T14:15:56.739Z,95401.13
2022-10-09T14:18:23.472Z,95400.31
2022-10-09T14:20:50.166Z,95392.34
2022-10-09T14:23:16.708Z,95391.22
2022-10-09T14:25:43.243Z,95386.53
2022-10-09T14:28:09.849Z,95388.63
2022-10-09T14:30:40.249Z,95379.66
2022-10-09T14:33:06.803Z,95382.44
2022-10-09T14:35:33.354Z,95387.28
2022-10-09T14:37:59.935Z,95384.00
2022-10-09T14:40:26.537Z,95389.34
2022-10-09T14:42:53.101Z,95390.13
2022-10-09T14:45:19.813Z,95393.38
2022-10-09T14:47:46.349Z,95392.06
2022-10-09T14:50:12.911Z,95384.91
2022-10-09T14:52:39.541Z,95395.06
2022-10-09T14:55:06.365Z,95392.28
2022-10-09T14:57:35.430Z,95390.66
2022-10-09T15:00:04.111Z,95394.22
2022-10-09T15:02:30.950Z,95398.13
2022-10-09T15:04:57.557Z,95391.22
2022-10-09T15:07:24.543Z,95388.94
2022-10-09T15:09:51.113Z,95382.00
2022-10-09T15:12:17.658Z,95380.50
2022-10-09T15:14:44.190Z,95374.22
2022-10-09T15:17:10.763Z,95362.59
2022-10-09T15:19:37.830Z,95369.59
2022-10-09T15:22:04.655Z,95361.63
2022-10-09T15:24:31.215Z,95368.88
2022-10-09T15:26:57.945Z,95360.28
2022-10-09T15:29:24.538Z,95354.94
2022-10-09T15:31:51.752Z,95354.78
2022-10-09T15:34:19.367Z,95353.47
2022-10-09T15:36:46.519Z,95350.69
2022-10-09T15:39:14.746Z,95356.00
2022-10-09T15:41:43.210Z,95350.81
2022-10-09T15:44:18.663Z,95341.53
2022-10-09T15:46:47.264Z,95341.03
2022-10-09T15:49:14.117Z,95336.97
2022-10-09T15:51:40.974Z,95339.38
2022-10-09T15:54:07.631Z,95335.31
2022-10-09T15:56:39.498Z,95330.28
2022-10-09T15:59:06.876Z,95321.88
2022-10-09T16:01:33.480Z,95318.47
2022-10-09T16:04:00.053Z,95311.25
2022-10-09T16:06:26.728Z,95316.41
2022-10-09T16:08:58.255Z,95317.84
2022-10-09T16:11:26.564Z,95323.16
2022-10-09T16:13:55.782Z,95324.16
2022-10-09T16:16:25.139Z,95317.66
2022-10-09T16:18:52.020Z,95311.41
2022-10-09T16:21:28.102Z,95317.41
2022-10-09T16:23:58.715Z,95312.53
2022-10-09T16:26:27.383Z,95312.22
2022-10-09T16:28:54.028Z,95320.16
2022-10-09T16:31:34.820Z,95312.38
2022-10-09T16:34:05.479Z,95316.63
2022-10-09T16:36:32.293Z,95311.06
2022-10-09T16:38:59.187Z,95314.13
2022-10-09T16:41:26.259Z,95316.19
2022-10-09T16:43:55.620Z,95310.78
2022-10-09T16:49:06.287Z,95317.13
2022-10-09T16:51:35.813Z,95312.84
2022-10-09T16:54:04.939Z,95309.91
2022-10-09T16:56:34.692Z,95317.88
2022-10-09T16:59:04.610Z,95315.72
2022-10-09T17:01:31.186Z,95318.19
2022-10-09T17:03:59.342Z,95314.88
2022-10-09T17:06:26.782Z,95313.25
2022-10-09T17:08:55.567Z,95316.78
2022-10-09T17:11:22.503Z,95314.25
2022-10-09T17:13:49.392Z,95312.25
2022-10-09T17:16:19.129Z,95314.56
2022-10-09T17:18:47.136Z,95312.72
2022-10-09T17:21:16.095Z,95315.19
2022-10-09T17:23:42.829Z,95323.78
2022-10-09T17:26:15.827Z,95318.81
2022-10-09T17:28:43.049Z,95315.03
2022-10-09T17:31:14.154Z,95317.44
2022-10-09T17:33:42.908Z,95312.84
2022-10-09T17:36:11.055Z,95306.78
2022-10-09T17:38:37.797Z,95311.00
2022-10-09T17:41:09.007Z,95311.28
2022-10-09T17:43:35.792Z,95312.13
2022-10-09T17:46:03.179Z,95305.31
2022-10-09T17:48:32.968Z,95306.69
2022-10-09T17:51:01.732Z,95308.34
2022-10-09T17:53:28.482Z,95312.81
2022-10-09T17:55:56.805Z,95308.19
2022-10-09T17:58:24.458Z,95302.38
2022-10-09T18:00:51.580Z,95311.03
2022-10-09T18:03:18.826Z,95298.28
2022-10-09T18:05:49.331Z,95304.94
2022-10-09T18:08:17.850Z,95300.63
2022-10-09T18:10:45.155Z,95303.06
2022-10-09T18:13:11.901Z,95302.50
2022-10-09T18:15:39.928Z,95297.22
2022-10-09T18:18:06.551Z,95297.06
2022-10-09T18:20:38.175Z,95293.97
2022-10-09T18:23:04.828Z,95292.22
2022-10-09T18:25:31.734Z,95288.28
2022-10-09T18:27:58.500Z,95285.31
2022-10-09T18:30:25.399Z,95288.53
2022-10-09T18:32:52.165Z,95293.13
2022-10-09T18:35:19.019Z,95281.06
2022-10-09T18:37:45.604Z,95278.25
2022-10-09T18:40:13.977Z,95278.63
2022-10-09T18:42:40.561Z,95275.22
2022-10-09T18:45:09.085Z,95272.13
2022-10-09T18:47:35.886Z,95267.50
2022-10-09T18:50:05.978Z,95272.38
2022-10-09T18:52:34.019Z,95264.50
2022-10-09T18:55:02.286Z,95267.22
2022-10-09T18:57:29.318Z,95269.13
2022-10-09T18:59:57.477Z,95265.88
2022-10-09T19:02:26.740Z,95264.50
2022-10-09T19:04:57.591Z,95265.31
2022-10-09T19:07:24.524Z,95270.47
2022-10-09T19:09:56.326Z,95266.00
2022-10-09T19:12:24.814Z,95268.44
2022-10-09T19:14:51.720Z,95273.56
2022-10-09T19:17:18.669Z,95274.19
2022-10-09T19:19:45.316Z,95267.97
2022-10-09T19:22:16.446Z,95262.94
2022-10-09T19:24:44.303Z,95258.81
2022-10-09T19:27:11.654Z,95256.28
2022-10-09T19:29:38.303Z,95255.97
2022-10-09T19:32:04.930Z,95251.88
2022-10-09T19:34:31.731Z,95250.50
2022-10-09T19:36:58.499Z,95255.69
2022-10-09T19:39:25.143Z,95252.66
2022-10-09T19:41:51.948Z,95250.34
2022-10-09T19:44:18.750Z,95242.78
2022-10-09T19:46:45.884Z,95248.53
2022-10-09T19:49:12.637Z,95245.50
2022-10-09T19:51:39.274Z,95252.28
2022-10-09T19:54:08.259Z,95246.75
2022-10-09T19:56:36.160Z,95243.16
2022-10-09T19:59:06.491Z,95247.22
2022-10-09T20:01:35.787Z,95243.97
2022-10-09T20:04:07.631Z,95243.72
2022-10-09T20:06:36.821Z,95252.97
2022-10-09T20:09:04.535Z,95253.69
2022-10-09T20:11:31.125Z,95256.38
2022-10-09T20:13:58.742Z,95257.06
2022-10-09T20:16:27.771Z,95255.84
2022-10-09T20:18:55.055Z,95257.19
2022-10-09T20:21:21.687Z,95253.56
2022-10-09T20:23:48.202Z,95245.34
2022-10-09T20:26:18.558Z,95252.03
2022-10-09T20:28:46.599Z,95250.44
2022-10-09T20:31:17.891Z,95245.00
2022-10-09T20:33:46.027Z,95248.13
2022-10-09T20:36:20.316Z,95243.13
2022-10-09T20:38:46.986Z,95242.22
2022-10-09T20:41:13.664Z,95240.16
2022-10-09T20:43:40.224Z,95237.19
2022-10-09T20:46:13.522Z,95234.34
2022-10-09T20:48:41.384Z,95231.34
2022-10-09T20:51:08.418Z,95240.03
2022-10-09T20:53:35.223Z,95234.88
2022-10-09T20:56:07.562Z,95236.09
2022-10-09T20:58:35.212Z,95224.72
2022-10-09T21:01:05.948Z,95229.59
2022-10-09T21:03:33.262Z,95229.72
2022-10-09T21:06:03.276Z,95228.91
2022-10-09T21:08:29.858Z,95229.28
2022-10-09T21:10:56.398Z,95223.75
2022-10-09T21:13:22.938Z,95226.19
2022-10-09T21:15:49.721Z,95230.81
2022-10-09T21:18:18.853Z,95230.66
2022-10-09T21:20:47.066Z,95232.16
2022-10-09T21:23:15.647Z,95231.09
2022-10-09T21:25:50.409Z,95231.09
2022-10-09T21:28:18.096Z,95229.56
2022-10-09T21:30:44.746Z,95228.88
2022-10-09T21:33:11.656Z,95226.03
2022-10-09T21:35:40.147Z,95226.69
2022-10-09T21:38:06.816Z,95228.03
2022-10-09T21:40:33.376Z,95232.94
2022-10-09T21:42:59.957Z,95223.31
2022-10-09T21:45:26.586Z,95223.69
2022-10-09T21:47:53.205Z,95224.66
2022-10-09T21:50:19.849Z,95218.25
2022-10-09T21:52:48.402Z,95218.53
2022-10-09T21:55:15.398Z,95213.38
2022-10-09T21:57:45.067Z,95218.13
2022-10-09T22:00:16.358Z,95214.19
2022-10-09T22:02:43.117Z,95215.13
2022-10-09T22:05:10.016Z,95220.41
2022-10-09T22:07:36.757Z,95213.34
2022-10-09T22:10:04.806Z,95211.97
2022-10-09T22:12:31.468Z,95216.59
2022-10-09T22:14:58.055Z,95216.22
2022-10-09T22:17:24.649Z,95212.81
2022-10-09T22:19:51.560Z,95218.66
2022-10-09T22:22:18.284Z,95214.03
2022-10-09T22:24:44.881Z,95215.53
2022-10-09T22:27:11.505Z,95212.94
2022-10-09T22:29:38.438Z,95209.09
2022-10-09T22:32:05.958Z,95214.53
2022-10-09T22:34:32.617Z,95208.81
2022-10-09T22:36:59.187Z,95207.72
2022-10-09T22:39:25.839Z,95207.13
2022-10-09T22:41:52.435Z,95215.00
2022-10-09T22:44:19.041Z,95215.00
2022-10-09T22:46:45.750Z,95217.44
2022-10-09T22:49:15.272Z,95220.69
2022-10-09T22:51:42.250Z,95218.00
2022-10-09T22:54:09.382Z,95222.19
2022-10-09T22:56:39.151Z,95220.28
2022-10-09T22:59:07.388Z,95220.81
2022-10-09T23:01:43.546Z,95229.72
2022-10-09T23:04:13.644Z,95217.66
2022-10-09T23:06:41.393Z,95218.47
2022-10-09T23:09:09.550Z,95221.44
2022-10-09T23:11:36.444Z,95228.66
2022-10-09T23:14:04.768Z,95227.25
2022-10-09T23:16:32.185Z,95222.78
2022-10-09T23:19:04.194Z,95216.13
2022-10-09T23:21:33.066Z,95224.00
2022-10-09T23:23:59.658Z,95213.69
2022-10-09T23:26:28.924Z,95223.69
2022-10-09T23:28:57.963Z,95224.69
2022-10-09T23:31:25.614Z,95223.47
2022-10-09T23:33:52.201Z,95223.84
2022-10-09T23:36:21.670Z,95221.44
2022-10-09T23:38:48.646Z,95221.00
2022-10-09T23:41:17.783Z,95227.91
2022-10-09T23:43:45.660Z,95226.28
2022-10-09T23:46:15.379Z,95223.16
2022-10-09T23:48:43.186Z,95227.94
2022-10-09T23:51:10.087Z,95226.06
2022-10-09T23:53:37.235Z,95228.84
2022-10-09T23:56:15.924Z,95229.78
2022-10-09T23:58:42.753Z,95226.75
